Time;durP1;ratioP1;P1;durP2;ratioP2;P2;SDS_P1;SDS_P2;PMS_P1;PMS_P2;Temp;Humidity;BMP_temperature;BMP_pressure;BME280_temperature;BME280_humidity;BME280_pressure;Samples;Min_cycle;Max_cycle;Signal;HPM_P1;HPM_P2
2022/10/03 00:01:14;;;;;;;0.31;0.24;;;;;;;12.64;94.55;99282.67;441148;117;923708;-77
2022/10/03 00:02:54;;;;;;;0.45;0.29;;;;;;;12.57;94.37;99292.19;460091;115;922595;-77
2022/10/03 00:04:18;;;;;;;0.54;0.20;;;;;;;12.49;94.27;99290.73;451389;117;922996;-76
2022/10/03 00:05:58;;;;;;;0.70;0.33;;;;;;;12.46;94.52;99288.50;459957;113;922598;-76
2022/10/03 00:07:16;;;;;;;0.53;0.19;;;;;;;12.46;94.54;99291.23;451375;117;922653;-76
2022/10/03 00:08:39;;;;;;;4.29;0.35;;;;;;;12.45;94.60;99292.34;450176;117;922505;-76
2022/10/03 00:09:48;;;;;;;1.28;0.29;;;;;;;12.46;94.85;99296.70;460092;115;922575;-77
2022/10/03 00:11:12;;;;;;;0.84;0.25;;;;;;;12.50;94.89;99295.13;444838;117;922877;-76
2022/10/03 00:12:39;;;;;;;0.23;0.23;;;;;;;12.53;94.89;99311.00;450305;117;923350;-76
2022/10/03 00:13:54;;;;;;;1.45;0.30;;;;;;;12.57;94.93;99309.39;460012;115;922956;-77
2022/10/03 00:15:12;;;;;;;0.24;0.22;;;;;;;12.62;95.03;99309.47;460070;115;922479;-76
2022/10/03 00:16:45;;;;;;;0.79;0.33;;;;;;;12.65;95.02;99311.67;463773;113;922459;-77
2022/10/03 00:17:54;;;;;;;0.71;0.28;;;;;;;12.67;94.90;99312.25;464928;114;922882;-76
2022/10/03 00:19:09;;;;;;;0.79;0.29;;;;;;;12.70;95.00;99314.45;464196;114;922483;-76
2022/10/03 00:20:34;;;;;;;1.22;0.35;;;;;;;12.74;95.02;99317.48;464006;114;922628;-77
2022/10/03 00:22:01;;;;;;;0.75;0.31;;;;;;;12.75;94.83;99319.14;464841;114;922777;-75
2022/10/03 00:23:20;;;;;;;0.56;0.22;;;;;;;12.75;94.70;99319.14;464807;114;922612;-76
2022/10/03 00:24:41;;;;;;;0.67;0.20;;;;;;;12.74;94.62;99325.69;463559;114;922942;-76
2022/10/03 00:25:56;;;;;;;0.33;0.18;;;;;;;12.71;94.26;99332.52;464803;114;922891;-77
2022/10/03 00:27:06;;;;;;;0.40;0.20;;;;;;;12.63;93.80;99330.23;464186;114;923040;-77
2022/10/03 00:28:18;;;;;;;0.57;0.40;;;;;;;12.55;93.75;99327.98;464796;114;922703;-77
2022/10/03 00:29:37;;;;;;;1.19;0.22;;;;;;;12.50;93.78;99328.77;464935;114;923081;-77
2022/10/03 00:30:49;;;;;;;0.54;0.35;;;;;;;12.49;93.75;99329.84;469329;113;922560;-77
2022/10/03 00:32:12;;;;;;;2.21;0.31;;;;;;;12.48;93.79;99338.30;461063;114;923159;-77
2022/10/03 00:33:22;;;;;;;2.03;0.19;;;;;;;12.47;93.80;99332.00;467786;113;922639;-75
2022/10/03 00:34:31;;;;;;;1.40;0.18;;;;;;;12.47;93.90;99340.20;458351;113;922486;-76
2022/10/03 00:36:10;;;;;;;0.41;0.27;;;;;;;12.49;94.00;99329.84;457017;116;922573;-77
2022/10/03 00:37:38;;;;;;;0.76;0.29;;;;;;;12.52;93.97;99331.22;457101;116;923024;-75
2022/10/03 00:39:17;;;;;;;1.55;0.62;;;;;;;12.47;93.73;99326.53;456969;116;922912;-75
2022/10/03 00:40:45;;;;;;;2.10;0.36;;;;;;;12.45;93.69;99334.19;456973;114;923012;-75
2022/10/03 00:41:52;;;;;;;0.43;0.42;;;;;;;12.43;93.77;99340.98;457066;116;922580;-75
2022/10/03 00:43:25;;;;;;;0.91;0.34;;;;;;;12.41;93.69;99343.13;455893;116;922518;-76
2022/10/03 00:44:44;;;;;;;0.65;0.44;;;;;;;12.39;93.64;99342.58;457064;116;922595;-76
2022/10/03 00:46:08;;;;;;;1.70;0.56;;;;;;;12.38;93.66;99343.66;451892;115;923041;-75
2022/10/03 00:47:21;;;;;;;2.77;0.50;;;;;;;12.36;93.59;99348.55;454214;116;923650;-76
2022/10/03 00:49:00;;;;;;;1.77;0.39;;;;;;;12.34;93.58;99350.72;457049;116;922595;-77
2022/10/03 00:50:18;;;;;;;0.71;0.50;;;;;;;12.31;93.53;99346.58;457084;116;923071;-77
2022/10/03 00:51:27;;;;;;;1.19;0.52;;;;;;;12.27;93.36;99350.09;457068;116;923022;-76
2022/10/03 00:53:06;;;;;;;0.62;0.37;;;;;;;12.24;93.38;99361.55;462384;113;922511;-76
2022/10/03 00:54:30;;;;;;;0.41;0.41;;;;;;;12.23;93.50;99368.09;463938;114;922672;-77
2022/10/03 00:55:45;;;;;;;1.24;0.38;;;;;;;12.22;93.52;99361.79;463881;112;922561;-78
2022/10/03 00:56:55;;;;;;;2.69;0.32;;;;;;;12.24;93.74;99364.28;463859;114;922488;-75
2022/10/03 00:58:33;;;;;;;5.43;0.68;;;;;;;12.26;93.90;99362.92;463870;114;922571;-77
2022/10/03 00:59:59;;;;;;;0.70;0.41;;;;;;;12.28;93.84;99359.95;463895;114;923445;-76
2022/10/03 01:01:25;;;;;;;1.33;0.36;;;;;;;12.32;93.97;99363.81;463789;114;923032;-76
2022/10/03 01:02:36;;;;;;;0.86;0.36;;;;;;;12.35;93.98;99366.05;463864;114;922917;-77
2022/10/03 01:03:52;;;;;;;1.96;0.39;;;;;;;12.37;94.00;99366.60;463460;114;922548;-76
2022/10/03 01:05:18;;;;;;;0.59;0.20;;;;;;;12.39;93.97;99368.02;463074;114;922939;-75
2022/10/03 01:06:36;;;;;;;0.27;0.19;;;;;;;12.41;93.86;99370.46;463811;114;923146;-77
2022/10/03 01:08:05;;;;;;;0.57;0.20;;;;;;;12.42;93.84;99374.86;463401;114;922472;-77
2022/10/03 01:09:24;;;;;;;0.88;0.29;;;;;;;12.42;93.80;99378.42;463851;114;923058;-76
2022/10/03 01:11:06;;;;;;;3.49;0.27;;;;;;;12.39;93.42;99373.48;463150;114;922628;-76
2022/10/03 01:12:28;;;;;;;0.27;0.21;;;;;;;12.35;93.32;99383.25;463303;114;922791;-76
2022/10/03 01:13:46;;;;;;;0.49;0.29;;;;;;;12.29;93.10;99389.77;454648;114;923300;-77
2022/10/03 01:15:15;;;;;;;0.85;0.26;;;;;;;12.27;93.12;99393.81;444981;119;923367;-77
2022/10/03 01:16:22;;;;;;;0.92;0.26;;;;;;;12.25;93.09;99393.23;440338;117;923463;-78
2022/10/03 01:17:48;;;;;;;2.04;0.26;;;;;;;12.23;92.93;99395.41;453520;115;922575;-76
2022/10/03 01:19:02;;;;;;;0.32;0.30;;;;;;;12.20;92.84;99396.73;461472;115;922478;-77
2022/10/03 01:20:15;;;;;;;0.59;0.22;;;;;;;12.17;92.73;99397.26;460506;115;923030;-78
2022/10/03 01:21:30;;;;;;;0.49;0.27;;;;;;;12.15;92.71;99399.41;461027;115;923028;-77
2022/10/03 01:22:46;;;;;;;1.50;0.34;;;;;;;12.14;92.80;99405.95;454511;115;922946;-77
2022/10/03 01:24:26;;;;;;;0.39;0.20;;;;;;;12.12;92.54;99399.92;459021;115;922561;-76
2022/10/03 01:25:38;;;;;;;1.31;0.27;;;;;;;12.08;92.55;99391.39;461438;113;922559;-77
2022/10/03 01:27:00;;;;;;;0.41;0.20;;;;;;;12.06;92.63;99396.30;461447;115;922883;-75
2022/10/03 01:30:25;;;;;;;0.89;0.41;;;;;;;12.07;92.77;99403.39;460561;115;923029;-77
2022/10/03 01:31:41;;;;;;;0.49;0.13;;;;;;;12.08;92.63;99402.32;459993;113;922582;-77
2022/10/03 01:32:54;;;;;;;2.02;0.29;;;;;;;12.06;92.63;99399.03;466785;113;922539;-76
2022/10/03 01:34:07;;;;;;;0.47;0.24;;;;;;;12.06;92.70;99404.50;466110;111;922572;-77
2022/10/03 01:35:36;;;;;;;0.29;0.14;;;;;;;12.06;92.63;99404.50;465205;114;922791;-76
2022/10/03 01:37:01;;;;;;;0.58;0.12;;;;;;;12.06;92.59;99404.50;465265;114;922639;-75
2022/10/03 01:38:29;;;;;;;0.19;0.10;;;;;;;12.07;92.49;99414.32;465131;114;922504;-76
2022/10/03 01:39:44;;;;;;;0.53;0.10;;;;;;;12.08;92.60;99418.71;465261;114;922565;-77
2022/10/03 01:40:50;;;;;;;1.01;0.13;;;;;;;12.11;92.68;99417.39;465268;114;922515;-77
2022/10/03 01:42:17;;;;;;;0.34;0.13;;;;;;;12.14;92.64;99419.61;465286;114;922800;-76
2022/10/03 01:43:48;;;;;;;0.78;0.20;;;;;;;12.14;92.54;99416.88;465001;114;922974;-76
2022/10/03 01:45:00;;;;;;;0.10;0.10;;;;;;;12.16;92.38;99433.02;465401;114;922606;-77
2022/10/03 01:46:19;;;;;;;2.01;0.37;;;;;;;12.17;92.53;99426.48;464033;114;923085;-77
2022/10/03 01:47:37;;;;;;;0.66;0.32;;;;;;;12.19;92.49;99432.50;465267;114;922995;-76
2022/10/03 01:48:53;;;;;;;1.06;0.33;;;;;;;12.20;92.60;99434.16;464717;114;923041;-76
2022/10/03 01:50:16;;;;;;;0.45;0.18;;;;;;;12.21;92.41;99436.66;465828;113;922449;-76
2022/10/03 01:51:25;;;;;;;0.22;0.22;;;;;;;12.22;92.53;99441.05;466341;113;922674;-76
2022/10/03 01:52:40;;;;;;;1.35;0.37;;;;;;;12.24;92.60;99436.13;462055;113;922772;-78
2022/10/03 01:53:49;;;;;;;1.73;0.24;;;;;;;12.26;92.53;99444.09;456252;115;922825;-76
2022/10/03 01:54:58;;;;;;;0.27;0.17;;;;;;;12.27;92.33;99434.81;453716;116;922768;-77
2022/10/03 01:56:20;;;;;;;0.84;0.19;;;;;;;12.26;92.16;99449.55;457151;114;922451;-75
2022/10/03 01:57:34;;;;;;;0.20;0.20;;;;;;;12.26;92.22;99447.65;457212;116;922576;-74
2022/10/03 01:58:58;;;;;;;1.02;0.20;;;;;;;12.26;92.12;99457.75;457174;116;922509;-76
2022/10/03 02:00:07;;;;;;;0.45;0.21;;;;;;;12.25;92.02;99450.63;457192;116;923061;-76
2022/10/03 02:01:15;;;;;;;1.79;0.30;;;;;;;12.22;91.78;99445.68;456706;114;922527;-77
2022/10/03 02:02:48;;;;;;;0.68;0.24;;;;;;;12.19;91.69;99446.17;456716;116;930292;-75
2022/10/03 02:03:58;;;;;;;0.54;0.10;;;;;;;12.17;91.66;99449.17;456954;116;923058;-77
2022/10/03 02:05:13;;;;;;;3.05;0.52;;;;;;;12.15;91.60;99448.59;456270;116;922916;-75
2022/10/03 02:06:30;;;;;;;0.14;0.10;;;;;;;12.15;91.63;99453.23;456822;114;923360;-77
2022/10/03 02:07:56;;;;;;;0.41;0.25;;;;;;;12.13;91.75;99459.77;456498;116;922834;-74
2022/10/03 02:09:06;;;;;;;0.59;0.20;;;;;;;12.16;91.89;99450.25;457035;116;922615;-76
2022/10/03 02:10:41;;;;;;;0.32;0.20;;;;;;;12.18;91.89;99450.84;456379;116;923075;-76
2022/10/03 02:11:51;;;;;;;0.23;0.19;;;;;;;12.20;91.88;99458.76;457176;116;923249;-76
2022/10/03 02:13:00;;;;;;;0.95;0.16;;;;;;;12.20;91.69;99464.23;457154;116;922883;-75
2022/10/03 02:14:21;;;;;;;0.52;0.13;;;;;;;12.20;91.69;99459.59;456831;116;923081;-75
2022/10/03 02:15:28;;;;;;;0.69;0.19;;;;;;;12.22;91.56;99464.81;457047;116;923367;-75
2022/10/03 02:16:43;;;;;;;0.49;0.21;;;;;;;12.23;91.57;99474.67;464203;114;922788;-74
2022/10/03 02:17:53;;;;;;;1.22;0.36;;;;;;;12.25;91.51;99472.48;465237;114;923008;-75
2022/10/03 02:18:59;;;;;;;2.13;0.20;;;;;;;12.26;91.49;99474.98;465198;114;922899;-76
2022/10/03 02:20:27;;;;;;;0.32;0.17;;;;;;;12.28;91.41;99474.73;464809;114;922541;-76
2022/10/03 02:21:31;;;;;;;1.57;0.34;;;;;;;12.29;91.28;99476.39;465167;114;922974;-77
2022/10/03 02:22:41;;;;;;;1.23;0.17;;;;;;;12.28;91.08;99475.56;465215;114;923044;-77
2022/10/03 02:23:45;;;;;;;0.44;0.22;;;;;;;12.26;91.00;99471.41;465215;114;923024;-77
2022/10/03 02:24:51;;;;;;;0.28;0.20;;;;;;;12.26;90.98;99477.71;465373;113;922583;-76
2022/10/03 02:26:30;;;;;;;0.44;0.17;;;;;;;12.26;90.93;99474.98;464056;114;930192;-75
2022/10/03 02:27:42;;;;;;;0.64;0.20;;;;;;;12.28;90.82;99477.47;465252;114;922460;-78
2022/10/03 02:29:15;;;;;;;0.43;0.21;;;;;;;12.25;90.56;99481.52;464691;114;922933;-75
2022/10/03 02:30:21;;;;;;;4.13;0.20;;;;;;;12.22;90.50;99481.20;441021;118;922767;-76
2022/10/03 02:31:37;;;;;;;0.21;0.20;;;;;;;12.19;90.60;99487.16;438926;120;923540;-76
2022/10/03 02:32:52;;;;;;;0.16;0.10;;;;;;;12.18;90.65;99480.06;455139;116;922616;-76
2022/10/03 02:34:05;;;;;;;1.39;0.19;;;;;;;12.17;90.60;99478.41;456533;114;923361;-77
2022/10/03 02:35:14;;;;;;;0.34;0.18;;;;;;;12.15;90.56;99481.38;454449;116;922412;-76
2022/10/03 02:36:25;;;;;;;0.92;0.32;;;;;;;12.15;90.70;99480.55;433579;118;922739;-76
2022/10/03 02:37:48;;;;;;;1.57;0.33;;;;;;;12.18;90.77;99485.53;446622;118;923613;-77
2022/10/03 02:39:03;;;;;;;1.42;0.20;;;;;;;12.20;90.73;99483.36;455160;116;922440;-75
2022/10/03 02:40:29;;;;;;;0.22;0.13;;;;;;;12.21;90.67;99483.11;457064;116;922585;-76
2022/10/03 02:42:05;;;;;;;0.32;0.23;;;;;;;12.23;90.72;99491.89;457108;116;922989;-75
2022/10/03 02:43:46;;;;;;;0.12;0.10;;;;;;;12.22;90.61;99494.88;457088;116;922606;-77
2022/10/03 02:45:05;;;;;;;0.38;0.33;;;;;;;12.19;90.69;99484.42;457077;116;922624;-75
2022/10/03 02:46:46;;;;;;;0.44;0.24;;;;;;;12.20;90.95;99497.02;451150;116;922899;-76
2022/10/03 02:48:12;;;;;;;1.31;0.26;;;;;;;12.23;90.98;99493.80;454036;116;922570;-76
2022/10/03 02:49:54;;;;;;;1.41;0.22;;;;;;;12.26;91.14;99493.28;457025;116;923059;-75
2022/10/03 02:51:19;;;;;;;1.62;0.21;;;;;;;12.26;91.08;99496.02;457077;116;922525;-76
2022/10/03 02:52:31;;;;;;;0.27;0.20;;;;;;;12.24;91.02;99498.19;456181;116;922524;-76
2022/10/03 02:53:59;;;;;;;0.84;0.36;;;;;;;12.24;91.02;99498.19;456495;116;922582;-75
2022/10/03 02:55:22;;;;;;;0.84;0.23;;;;;;;12.27;91.18;99503.97;454442;116;922483;-76
2022/10/03 02:56:55;;;;;;;0.30;0.19;;;;;;;12.30;91.33;99505.36;454507;116;922881;-77
2022/10/03 02:58:19;;;;;;;0.36;0.31;;;;;;;12.33;91.38;99500.23;440940;116;923300;-75
2022/10/03 02:59:37;;;;;;;0.94;0.24;;;;;;;12.35;91.22;99502.72;454473;116;922515;-77
2022/10/03 03:01:06;;;;;;;0.33;0.20;;;;;;;12.37;91.25;99500.55;451888;116;922964;-76
2022/10/03 03:02:36;;;;;;;0.26;0.20;;;;;;;12.39;91.34;99501.12;454460;116;922929;-76
2022/10/03 03:03:59;;;;;;;1.86;0.30;;;;;;;12.44;91.43;99501.19;454475;116;922961;-76
2022/10/03 03:05:08;;;;;;;0.66;0.27;;;;;;;12.47;91.52;99498.77;454496;116;922652;-76
2022/10/03 03:06:40;;;;;;;1.73;0.29;;;;;;;12.50;91.36;99500.19;454442;116;923005;-76
2022/10/03 03:08:07;;;;;;;0.60;0.15;;;;;;;12.53;91.42;99507.86;454467;116;922547;-77
2022/10/03 03:09:30;;;;;;;1.69;0.35;;;;;;;12.56;91.27;99504.64;453041;116;922948;-78
2022/10/03 03:10:36;;;;;;;0.35;0.24;;;;;;;12.58;91.10;99502.45;454521;116;922682;-75
2022/10/03 03:12:03;;;;;;;1.34;0.40;;;;;;;12.58;91.04;99507.92;451691;116;923267;-77
2022/10/03 03:13:12;;;;;;;5.92;0.78;;;;;;;12.60;91.08;99505.77;454493;116;923001;-77
2022/10/03 03:14:30;;;;;;;0.98;0.29;;;;;;;12.61;91.03;99521.11;454448;116;922972;-76
2022/10/03 03:16:01;;;;;;;0.88;0.32;;;;;;;12.63;91.04;99510.72;455585;114;922763;-77
2022/10/03 03:17:13;;;;;;;0.15;0.14;;;;;;;12.66;91.01;99517.61;462687;114;922455;-76
2022/10/03 03:18:33;;;;;;;1.01;0.30;;;;;;;12.66;90.85;99523.91;462505;114;922605;-76
2022/10/03 03:20:11;;;;;;;0.29;0.22;;;;;;;12.64;90.59;99514.29;462481;114;922496;-76
2022/10/03 03:21:24;;;;;;;0.83;0.40;;;;;;;12.63;90.63;99523.56;462515;114;923167;-76
2022/10/03 03:22:47;;;;;;;0.34;0.20;;;;;;;12.63;90.66;99520.83;461832;114;923079;-75
2022/10/03 03:24:10;;;;;;;1.63;0.30;;;;;;;12.61;90.55;99525.75;462529;114;923525;-76
2022/10/03 03:25:41;;;;;;;0.89;0.29;;;;;;;12.60;90.37;99533.12;462546;114;922663;-76
2022/10/03 03:26:56;;;;;;;0.43;0.21;;;;;;;12.57;90.40;99528.14;460923;114;923038;-75
2022/10/03 03:28:18;;;;;;;0.70;0.27;;;;;;;12.57;90.52;99532.81;462524;114;922785;-76
2022/10/03 03:29:33;;;;;;;3.24;0.44;;;;;;;12.56;90.68;99534.72;462470;114;922521;-74
2022/10/03 03:30:55;;;;;;;0.42;0.30;;;;;;;12.56;90.62;99539.36;461807;114;922886;-75
2022/10/03 03:32:11;;;;;;;0.93;0.47;;;;;;;12.57;90.65;99549.22;462502;114;922849;-75
2022/10/03 03:33:37;;;;;;;0.34;0.32;;;;;;;12.56;90.53;99551.13;458691;114;922856;-77
2022/10/03 03:35:18;;;;;;;0.30;0.30;;;;;;;12.57;90.44;99549.22;454501;116;922610;-76
2022/10/03 03:36:46;;;;;;;0.87;0.58;;;;;;;12.55;90.43;99557.66;453227;116;922728;-76
2022/10/03 03:38:01;;;;;;;1.86;0.48;;;;;;;12.53;90.37;99565.28;454567;116;922687;-77
2022/10/03 03:39:10;;;;;;;1.14;0.50;;;;;;;12.52;90.49;99558.16;453980;116;922886;-77
2022/10/03 03:40:31;;;;;;;0.64;0.50;;;;;;;12.53;90.47;99557.91;454517;116;922513;-75
2022/10/03 03:41:49;;;;;;;1.73;0.59;;;;;;;12.53;90.49;99568.84;453246;116;922490;-76
2022/10/03 03:43:04;;;;;;;0.92;0.50;;;;;;;12.54;90.45;99570.51;449993;117;923078;-76
2022/10/03 03:44:28;;;;;;;1.37;0.48;;;;;;;12.55;90.58;99568.60;449989;117;922995;-76
2022/10/03 03:45:37;;;;;;;1.98;0.66;;;;;;;12.56;90.61;99575.73;450592;117;922482;-77
2022/10/03 03:46:48;;;;;;;1.74;0.83;;;;;;;12.58;90.37;99578.19;450617;117;922573;-74
2022/10/03 03:48:15;;;;;;;1.71;0.76;;;;;;;12.58;90.36;99578.19;450031;117;922590;-77
2022/10/03 03:49:41;;;;;;;1.29;0.64;;;;;;;12.60;90.38;99590.55;449862;117;922885;-76
2022/10/03 03:51:20;;;;;;;3.62;1.07;;;;;;;12.61;90.29;99591.38;450668;117;922632;-77
2022/10/03 03:52:40;;;;;;;0.85;0.71;;;;;;;12.61;90.44;99597.67;450536;117;922555;-76
2022/10/03 03:54:02;;;;;;;0.77;0.76;;;;;;;12.60;90.32;99590.55;450612;117;922745;-76
2022/10/03 03:55:45;;;;;;;2.80;0.93;;;;;;;12.60;90.49;99595.19;450607;117;922627;-76
2022/10/03 03:57:14;;;;;;;1.84;0.83;;;;;;;12.62;90.40;99601.24;450562;117;923051;-76
2022/10/03 03:58:40;;;;;;;1.49;1.04;;;;;;;12.62;90.48;99599.34;450142;117;923047;-78
2022/10/03 03:59:53;;;;;;;1.08;1.00;;;;;;;12.62;90.46;99606.71;450602;117;923001;-75
2022/10/03 04:01:18;;;;;;;1.32;1.21;;;;;;;12.60;90.38;99612.42;449184;117;923043;-77
2022/10/03 04:02:27;;;;;;;1.26;1.04;;;;;;;12.60;90.35;99611.59;448018;117;922528;-76
2022/10/03 04:03:50;;;;;;;1.13;1.01;;;;;;;12.58;90.25;99614.57;450166;117;922536;-76
2022/10/03 04:05:08;;;;;;;2.28;1.07;;;;;;;12.57;90.30;99618.38;450613;117;923172;-77
2022/10/03 04:06:35;;;;;;;1.19;1.02;;;;;;;12.57;90.12;99618.38;450601;117;922539;-76
2022/10/03 04:08:13;;;;;;;1.24;0.98;;;;;;;12.56;90.08;99618.66;430585;123;923220;-76
2022/10/03 04:09:41;;;;;;;1.23;1.03;;;;;;;12.56;90.20;99618.66;430495;123;923226;-75
2022/10/03 04:10:59;;;;;;;1.02;0.92;;;;;;;12.54;90.11;99616.99;430522;123;922698;-75
2022/10/03 04:12:14;;;;;;;1.06;0.89;;;;;;;12.53;89.83;99629.00;430491;123;923207;-76
2022/10/03 04:13:30;;;;;;;1.18;0.74;;;;;;;12.51;89.83;99630.34;434709;117;922948;-76
2022/10/03 04:14:37;;;;;;;0.81;0.80;;;;;;;12.47;89.63;99627.27;450568;117;922896;-77
2022/10/03 04:15:55;;;;;;;1.14;0.83;;;;;;;12.46;89.66;99630.24;451246;116;922514;-76
2022/10/03 04:18:59;;;;;;;1.34;1.23;;;;;;;12.44;89.67;99630.52;454469;116;923331;-78
2022/10/03 04:20:32;;;;;;;1.06;0.87;;;;;;;12.42;89.46;99635.39;444119;116;923002;-78
2022/10/03 04:21:59;;;;;;;1.02;0.82;;;;;;;12.39;89.31;99646.02;454497;116;923461;-76
2022/10/03 04:23:23;;;;;;;1.34;0.81;;;;;;;12.34;89.36;99638.56;453958;116;922691;-77
2022/10/03 04:24:46;;;;;;;0.82;0.77;;;;;;;12.32;89.33;99639.88;454458;116;922875;-77
2022/10/03 04:26:06;;;;;;;0.77;0.77;;;;;;;12.28;89.28;99646.92;453773;116;923202;-77
2022/10/03 04:27:18;;;;;;;0.68;0.68;;;;;;;12.25;89.31;99639.20;454075;116;922652;-76
2022/10/03 04:28:25;;;;;;;0.97;0.91;;;;;;;12.25;89.39;99647.41;451242;116;922791;-76
2022/10/03 04:29:59;;;;;;;1.69;0.87;;;;;;;12.25;89.43;99656.44;454074;116;922487;-76
2022/10/03 04:31:05;;;;;;;1.06;0.98;;;;;;;12.23;89.34;99655.88;454139;116;922750;-75
2022/10/03 04:32:27;;;;;;;0.68;0.59;;;;;;;12.23;89.35;99660.51;454435;116;922445;-74
2022/10/03 04:33:50;;;;;;;1.82;0.91;;;;;;;12.32;89.43;99659.84;481752;110;946882;-76
2022/10/03 04:35:05;;;;;;;1.51;0.76;;;;;;;12.22;89.35;99667.05;459814;114;923181;-74
2022/10/03 04:36:24;;;;;;;2.70;0.88;;;;;;;12.21;89.38;99666.22;458858;114;922572;-75
2022/10/03 04:37:50;;;;;;;1.17;0.63;;;;;;;12.21;89.48;99671.68;456707;116;922564;-76
2022/10/03 04:39:20;;;;;;;0.67;0.67;;;;;;;12.23;89.47;99674.17;461118;115;922693;-76
2022/10/03 04:40:46;;;;;;;2.17;0.88;;;;;;;12.20;89.28;99677.39;460828;115;922900;-76
2022/10/03 04:42:11;;;;;;;1.36;0.98;;;;;;;12.18;89.19;99674.09;459578;115;930315;-78
2022/10/03 04:43:20;;;;;;;0.70;0.70;;;;;;;12.16;89.38;99682.53;461128;114;923012;-75
2022/10/03 04:44:30;;;;;;;1.46;0.83;;;;;;;12.16;89.34;99682.53;456484;115;922637;-75
2022/10/03 04:45:54;;;;;;;1.51;0.74;;;;;;;12.15;89.46;99689.06;460988;115;923030;-75
2022/10/03 04:47:03;;;;;;;1.57;0.50;;;;;;;12.15;89.38;99686.33;455332;115;930173;-76
2022/10/03 04:48:27;;;;;;;1.03;0.72;;;;;;;12.15;89.25;99688.23;461127;115;923452;-76
2022/10/03 04:49:45;;;;;;;1.27;0.75;;;;;;;12.13;89.17;99693.94;461130;115;922452;-75
2022/10/03 04:51:13;;;;;;;1.44;0.82;;;;;;;12.12;89.19;99695.03;461037;115;922595;-75
2022/10/03 04:52:25;;;;;;;1.16;0.79;;;;;;;12.13;89.25;99697.50;461765;114;922550;-76
2022/10/03 04:53:47;;;;;;;0.90;0.90;;;;;;;12.13;89.35;99700.23;463006;114;922566;-75
2022/10/03 04:55:12;;;;;;;0.94;0.79;;;;;;;12.15;89.44;99707.36;463066;114;923043;-77
2022/10/03 04:56:25;;;;;;;1.42;0.96;;;;;;;12.17;89.43;99700.59;463058;114;922576;-76
2022/10/03 04:57:43;;;;;;;0.83;0.75;;;;;;;12.17;89.28;99702.48;463073;114;922961;-76
2022/10/03 04:59:05;;;;;;;0.78;0.78;;;;;;;12.17;89.29;99703.32;462913;114;922515;-75
2022/10/03 05:00:27;;;;;;;0.76;0.76;;;;;;;12.17;89.18;99705.22;462293;114;922889;-76
2022/10/03 05:01:44;;;;;;;1.32;1.14;;;;;;;12.16;89.13;99712.59;453747;116;922664;-76
2022/10/03 05:03:06;;;;;;;0.89;0.89;;;;;;;12.16;89.21;99701.66;455912;114;930328;-77
2022/10/03 05:04:36;;;;;;;1.56;0.71;;;;;;;12.17;89.23;99714.25;462375;114;922595;-76
2022/10/03 05:05:55;;;;;;;1.19;0.91;;;;;;;12.19;89.30;99711.25;462520;114;922630;-77
2022/10/03 05:07:18;;;;;;;1.81;1.10;;;;;;;12.22;89.30;99718.97;436373;121;922839;-76
2022/10/03 05:08:38;;;;;;;1.57;1.30;;;;;;;12.23;89.38;99709.70;463062;114;922609;-77
2022/10/03 05:09:57;;;;;;;1.25;0.95;;;;;;;12.26;89.26;99714.66;462421;114;922536;-75
2022/10/03 05:11:39;;;;;;;0.89;0.85;;;;;;;12.29;89.31;99723.22;462021;114;923011;-76
2022/10/03 05:12:48;;;;;;;1.39;0.93;;;;;;;12.30;89.26;99716.65;462904;114;922964;-75
2022/10/03 05:14:19;;;;;;;0.97;0.83;;;;;;;12.33;89.23;99720.81;462918;114;922516;-75
2022/10/03 05:15:34;;;;;;;2.10;1.13;;;;;;;12.36;89.08;99725.77;463172;114;922471;-73
2022/10/03 05:16:53;;;;;;;1.55;1.20;;;;;;;12.39;88.92;99725.29;457220;116;922578;-74
2022/10/03 05:18:15;;;;;;;1.87;0.97;;;;;;;12.41;88.97;99725.84;457487;116;922660;-77
2022/10/03 05:19:24;;;;;;;1.61;0.96;;;;;;;12.46;89.09;99723.20;457415;115;922982;-77
2022/10/03 05:21:04;;;;;;;1.29;0.99;;;;;;;12.52;89.05;99733.98;457449;115;923008;-75
2022/10/03 05:22:13;;;;;;;1.32;1.04;;;;;;;12.57;88.98;99733.23;457230;116;923011;-77
2022/10/03 05:23:43;;;;;;;0.74;0.74;;;;;;;12.64;88.95;99722.13;457285;116;922541;-76
2022/10/03 05:24:50;;;;;;;1.19;0.87;;;;;;;12.69;88.89;99733.98;457177;116;922932;-76
2022/10/03 05:25:59;;;;;;;0.63;0.63;;;;;;;12.74;88.90;99730.49;456809;115;923224;-77
2022/10/03 05:27:20;;;;;;;1.57;0.89;;;;;;;12.80;88.88;99733.06;454039;116;922666;-77
2022/10/03 05:28:53;;;;;;;1.42;0.88;;;;;;;12.84;88.73;99736.15;457333;116;922798;-76
2022/10/03 05:30:02;;;;;;;1.49;0.97;;;;;;;12.88;88.65;99732.66;458329;115;923184;-75
2022/10/03 05:31:45;;;;;;;0.93;0.89;;;;;;;12.92;88.54;99732.97;461145;114;922875;-76
2022/10/03 05:32:51;;;;;;;1.02;0.86;;;;;;;12.93;88.24;99738.20;465375;114;922551;-74
2022/10/03 05:34:13;;;;;;;1.62;0.97;;;;;;;12.95;88.37;99746.17;463827;114;922876;-76
2022/10/03 05:35:32;;;;;;;0.98;0.88;;;;;;;12.96;88.53;99751.37;455199;116;923055;-76
2022/10/03 05:36:56;;;;;;;1.08;0.90;;;;;;;13.02;88.77;99745.97;455191;116;922943;-77
2022/10/03 05:38:25;;;;;;;1.06;0.81;;;;;;;13.05;88.80;99754.53;455158;116;922777;-76
2022/10/03 05:39:46;;;;;;;1.39;1.00;;;;;;;13.10;88.72;99748.30;455141;116;923074;-76
2022/10/03 05:40:55;;;;;;;1.21;1.03;;;;;;;13.13;88.79;99753.28;454181;116;922860;-77
2022/10/03 05:42:26;;;;;;;3.28;0.92;;;;;;;13.15;88.69;99749.23;451351;116;923071;-75
2022/10/03 05:43:41;;;;;;;1.46;0.89;;;;;;;13.17;88.61;99752.55;454971;116;923222;-76
2022/10/03 05:45:02;;;;;;;3.92;1.01;;;;;;;13.15;88.07;99751.97;454960;116;930131;-75
2022/10/03 05:46:13;;;;;;;0.88;0.88;;;;;;;13.10;87.81;99751.86;455001;116;922834;-76
2022/10/03 05:47:44;;;;;;;1.01;0.94;;;;;;;13.08;87.90;99754.01;454867;116;923424;-76
2022/10/03 05:49:09;;;;;;;1.26;1.17;;;;;;;13.07;88.03;99765.20;454634;116;930176;-76
2022/10/03 05:50:27;;;;;;;1.08;0.97;;;;;;;13.03;87.80;99762.15;454706;116;930173;-76
2022/10/03 05:51:46;;;;;;;13.29;1.39;;;;;;;12.99;87.72;99763.73;454984;116;923061;-76
2022/10/03 05:53:07;;;;;;;1.38;0.96;;;;;;;12.95;87.70;99762.59;460093;115;922981;-77
2022/10/03 05:54:29;;;;;;;0.85;0.85;;;;;;;12.94;87.80;99766.40;460990;115;922487;-77
2022/10/03 05:55:55;;;;;;;1.92;1.14;;;;;;;12.91;87.86;99762.23;460978;115;922863;-79
2022/10/03 05:57:06;;;;;;;0.79;0.79;;;;;;;12.90;87.41;99766.05;460261;115;923061;-77
2022/10/03 05:58:32;;;;;;;1.29;1.13;;;;;;;12.86;87.15;99769.54;460988;115;922973;-77
2022/10/03 06:00:01;;;;;;;1.08;1.03;;;;;;;12.82;87.40;99766.48;460962;115;922874;-76
2022/10/03 06:01:08;;;;;;;;;;;;;;;12.81;87.44;99775.77;463641;115;922322;-77
2022/10/03 06:02:35;;;;;;;1.46;0.99;;;;;;;12.81;87.31;99783.14;459819;115;922383;-77
2022/10/03 06:03:57;;;;;;;1.89;0.94;;;;;;;12.78;87.32;99779.01;460978;115;922660;-75
2022/10/03 06:05:22;;;;;;;0.80;0.80;;;;;;;12.75;87.24;99781.39;461042;115;922530;-77
2022/10/03 06:06:34;;;;;;;1.21;1.01;;;;;;;12.74;87.06;99783.30;461057;115;922472;-78
2022/10/03 06:08:13;;;;;;;1.04;0.98;;;;;;;12.73;87.07;99781.66;460759;115;922523;-76
2022/10/03 06:09:44;;;;;;;1.52;1.36;;;;;;;12.73;87.26;99778.93;461049;115;922540;-76
2022/10/03 06:11:02;;;;;;;2.68;1.26;;;;;;;12.75;87.29;99786.86;461174;115;922806;-77
2022/10/03 06:12:15;;;;;;;0.88;0.73;;;;;;;12.75;87.13;99787.70;460692;115;922548;-76
2022/10/03 06:13:39;;;;;;;1.52;1.14;;;;;;;12.76;86.95;99788.53;460556;115;923077;-76
2022/10/03 06:15:15;;;;;;;1.49;1.01;;;;;;;12.76;86.92;99789.36;461037;115;922518;-76
2022/10/03 06:16:24;;;;;;;1.36;0.78;;;;;;;12.78;87.00;99794.59;464685;114;922526;-75
2022/10/03 06:17:47;;;;;;;1.66;0.98;;;;;;;12.81;86.75;99799.55;464420;114;923082;-77
2022/10/03 06:19:08;;;;;;;1.72;0.93;;;;;;;12.82;86.69;99803.95;465260;114;922982;-77